KSFF

Felts Field Airport

Spokane, Washington, USA
METAR KSFF 171853Z 00000KT 10SM CLR 13/02 A3032 RMK AO2 SLP272 T01280017
Observed Flight Rules
Oct-17 @ 18:53 UTC (19 minutes ago) Visual Flight Rules
Visibility Clouds
10 miles
  • Clear skies
Temperatures Readings
Current 13°C / 55°F
Dewpoint 2°C / 36°F
Humidity 47%
Altimeter 30.32" Hg
Pressure 1027.2 hPa
Elevation 609
METAR KSFF 171853Z 00000KT 10SM CLR 13/02 A3032 RMK AO2 SLP272 T01280017
Observed Flight Rules
Oct-17 @ 18:53 UTC
(19 minutes ago)
VFR
Clouds
  • Clear skies
Temperature Dewpoint
13°C / 55°F 2°C / 36°F
Humidity Altimeter Pressure
47% 30.32" Hg 1027.2 hPa